Terminal Aerodrome Forecast
Issued by NWS Columbia, SC

Home | Current Version | Previous Version | Text Only | Print | Product List | Glossary On
Versions: 1 2 3 4 5 6 7 8 9 10 11 12 13 14 15 16 17 18 19 20 21 22 23 24 25 26 27 28
775
FTUS42 KCAE 301739
TAFCAE
TAF
KCAE 301739Z 3018/3118 33008KT P6SM VCSH SCT030 BKN040 BKN060
      TEMPO 3018/3021 6SM -SHRA BR BKN025 OVC040
     FM310000 VRB04KT P6SM SCT040
     FM310900 VRB03KT 5SM BR SCT007 BKN015
     FM311300 01006KT P6SM SCT015 BKN040=

USA.gov is the U.S. government's official web portal to all federal, state and local government web resources and services.